sensor_id;sensor_type;location;lat;lon;timestamp;pressure;altitude;pressure_sealevel;temperature;humidity
13029;BME280;6581;42.662;23.402;2023-02-18T00:08:19;96096.63;;;3.91;68.51
13029;BME280;6581;42.662;23.402;2023-02-18T02:15:45;96048.22;;;2.52;77.00
13029;BME280;6581;42.662;23.402;2023-02-18T02:27:03;96037.34;;;2.91;73.61
13029;BME280;6581;42.662;23.402;2023-02-18T03:31:40;96059.81;;;2.79;72.24
13029;BME280;6581;42.662;23.402;2023-02-18T03:35:09;96070.78;;;2.94;71.65
13029;BME280;6581;42.662;23.402;2023-02-18T03:38:08;96071.50;;;2.67;73.07
13029;BME280;6581;42.662;23.402;2023-02-18T03:41:30;96066.19;;;2.73;72.74
13029;BME280;6581;42.662;23.402;2023-02-18T03:47:54;96085.22;;;2.78;73.61
13029;BME280;6581;42.662;23.402;2023-02-18T03:55:40;96098.09;;;2.75;74.06
13029;BME280;6581;42.662;23.402;2023-02-18T04:04:51;96069.75;;;2.63;74.37
13029;BME280;6581;42.662;23.402;2023-02-18T05:05:40;96067.44;;;2.29;78.95
13029;BME280;6581;42.662;23.402;2023-02-18T05:08:44;96065.53;;;2.16;79.87
13029;BME280;6581;42.662;23.402;2023-02-18T05:15:39;96045.66;;;2.34;79.34
13029;BME280;6581;42.662;23.402;2023-02-18T05:27:43;96052.19;;;2.96;76.26
13029;BME280;6581;42.662;23.402;2023-02-18T07:19:52;96062.38;;;6.85;56.59
13029;BME280;6581;42.662;23.402;2023-02-18T07:22:20;96062.09;;;6.78;56.08
13029;BME280;6581;42.662;23.402;2023-02-18T07:24:50;96060.72;;;6.72;55.00
13029;BME280;6581;42.662;23.402;2023-02-18T07:27:17;96053.44;;;6.77;54.44
13029;BME280;6581;42.662;23.402;2023-02-18T07:30:10;96056.84;;;6.69;55.91
13029;BME280;6581;42.662;23.402;2023-02-18T07:32:37;96060.38;;;6.82;57.04
13029;BME280;6581;42.662;23.402;2023-02-18T07:35:06;96063.00;;;6.90;57.32
13029;BME280;6581;42.662;23.402;2023-02-18T07:37:33;96073.56;;;6.82;57.49
13029;BME280;6581;42.662;23.402;2023-02-18T07:40:00;96070.94;;;6.73;55.81
13029;BME280;6581;42.662;23.402;2023-02-18T07:42:27;96069.38;;;6.81;55.67
13029;BME280;6581;42.662;23.402;2023-02-18T07:44:54;96071.34;;;6.92;55.80
13029;BME280;6581;42.662;23.402;2023-02-18T07:47:21;96064.72;;;6.86;57.82
13029;BME280;6581;42.662;23.402;2023-02-18T07:49:48;96076.03;;;6.87;56.35
13029;BME280;6581;42.662;23.402;2023-02-18T07:52:17;96068.84;;;7.04;55.62
13029;BME280;6581;42.662;23.402;2023-02-18T07:54:44;96074.25;;;7.08;55.70
13029;BME280;6581;42.662;23.402;2023-02-18T07:57:11;96072.47;;;7.21;55.32
13029;BME280;6581;42.662;23.402;2023-02-18T07:59:38;96075.63;;;7.14;55.53
13029;BME280;6581;42.662;23.402;2023-02-18T08:02:05;96082.28;;;7.11;55.08
13029;BME280;6581;42.662;23.402;2023-02-18T08:04:32;96079.88;;;7.36;55.24
13029;BME280;6581;42.662;23.402;2023-02-18T08:07:00;96078.53;;;7.59;53.87
13029;BME280;6581;42.662;23.402;2023-02-18T08:09:28;96073.69;;;7.61;53.74
13029;BME280;6581;42.662;23.402;2023-02-18T08:11:55;96068.75;;;7.60;53.63
13029;BME280;6581;42.662;23.402;2023-02-18T08:14:23;96069.34;;;7.86;53.11
13029;BME280;6581;42.662;23.402;2023-02-18T08:16:50;96060.94;;;8.13;52.39
13029;BME280;6581;42.662;23.402;2023-02-18T08:19:17;96068.59;;;8.27;51.06
13029;BME280;6581;42.662;23.402;2023-02-18T08:21:44;96057.09;;;8.52;50.45
13029;BME280;6581;42.662;23.402;2023-02-18T08:24:12;96056.56;;;8.71;50.74
13029;BME280;6581;42.662;23.402;2023-02-18T08:26:40;96063.25;;;8.89;49.40
13029;BME280;6581;42.662;23.402;2023-02-18T08:29:08;96063.47;;;9.08;49.53
13029;BME280;6581;42.662;23.402;2023-02-18T08:31:35;96071.34;;;9.29;47.13
13029;BME280;6581;42.662;23.402;2023-02-18T08:34:03;96064.28;;;9.33;47.46
13029;BME280;6581;42.662;23.402;2023-02-18T08:36:30;96069.66;;;9.12;47.40
13029;BME280;6581;42.662;23.402;2023-02-18T08:38:57;96065.69;;;9.06;46.39
13029;BME280;6581;42.662;23.402;2023-02-18T08:41:24;96057.66;;;9.27;46.88
13029;BME280;6581;42.662;23.402;2023-02-18T08:43:52;96037.06;;;9.32;46.79
13029;BME280;6581;42.662;23.402;2023-02-18T08:46:19;96046.66;;;9.49;46.35
13029;BME280;6581;42.662;23.402;2023-02-18T08:48:46;96046.78;;;9.53;45.61
13029;BME280;6581;42.662;23.402;2023-02-18T08:51:15;96062.84;;;9.35;46.17
13029;BME280;6581;42.662;23.402;2023-02-18T08:53:42;96057.13;;;9.58;45.93
13029;BME280;6581;42.662;23.402;2023-02-18T08:56:11;96061.31;;;9.59;45.23
13029;BME280;6581;42.662;23.402;2023-02-18T08:58:39;96053.69;;;9.69;45.23
13029;BME280;6581;42.662;23.402;2023-02-18T09:01:09;96053.16;;;9.76;44.90
13029;BME280;6581;42.662;23.402;2023-02-18T09:03:37;96062.25;;;10.03;44.94
13029;BME280;6581;42.662;23.402;2023-02-18T09:06:05;96060.16;;;9.96;43.95
13029;BME280;6581;42.662;23.402;2023-02-18T09:08:33;96048.44;;;10.21;44.05
13029;BME280;6581;42.662;23.402;2023-02-18T09:11:02;96043.56;;;10.23;43.47
13029;BME280;6581;42.662;23.402;2023-02-18T09:13:30;96060.53;;;10.35;43.17
13029;BME280;6581;42.662;23.402;2023-02-18T09:15:59;96043.34;;;10.29;42.60
13029;BME280;6581;42.662;23.402;2023-02-18T09:18:30;96047.31;;;10.35;42.83
13029;BME280;6581;42.662;23.402;2023-02-18T09:20:58;96054.16;;;10.36;43.58
13029;BME280;6581;42.662;23.402;2023-02-18T09:23:27;96049.97;;;10.22;43.61
13029;BME280;6581;42.662;23.402;2023-02-18T09:25:55;96054.28;;;10.15;42.80
13029;BME280;6581;42.662;23.402;2023-02-18T09:28:23;96046.59;;;9.86;43.79
13029;BME280;6581;42.662;23.402;2023-02-18T09:30:50;96052.34;;;9.88;43.51
13029;BME280;6581;42.662;23.402;2023-02-18T09:33:18;96040.63;;;10.01;43.61
13029;BME280;6581;42.662;23.402;2023-02-18T09:35:46;96039.19;;;10.15;43.50
13029;BME280;6581;42.662;23.402;2023-02-18T09:38:15;96030.88;;;10.29;43.52
13029;BME280;6581;42.662;23.402;2023-02-18T09:40:44;96022.84;;;10.53;42.98
13029;BME280;6581;42.662;23.402;2023-02-18T09:43:20;96017.78;;;10.64;42.43
13029;BME280;6581;42.662;23.402;2023-02-18T09:45:50;96016.47;;;10.86;42.36
13029;BME280;6581;42.662;23.402;2023-02-18T09:48:20;96026.13;;;11.09;42.35
13029;BME280;6581;42.662;23.402;2023-02-18T09:50:53;96020.06;;;11.40;40.82
13029;BME280;6581;42.662;23.402;2023-02-18T09:53:21;96025.41;;;11.75;40.92
13029;BME280;6581;42.662;23.402;2023-02-18T09:55:48;96030.44;;;11.65;39.91
13029;BME280;6581;42.662;23.402;2023-02-18T09:58:20;96034.59;;;11.46;40.46
13029;BME280;6581;42.662;23.402;2023-02-18T10:00:50;96031.25;;;11.49;40.55
13029;BME280;6581;42.662;23.402;2023-02-18T10:03:21;96019.09;;;11.48;40.32
13029;BME280;6581;42.662;23.402;2023-02-18T10:05:57;96016.78;;;11.63;40.58
13029;BME280;6581;42.662;23.402;2023-02-18T10:08:26;96011.59;;;11.35;39.98
13029;BME280;6581;42.662;23.402;2023-02-18T10:10:54;96008.63;;;11.55;39.82
13029;BME280;6581;42.662;23.402;2023-02-18T10:13:23;96001.75;;;11.86;39.98
13029;BME280;6581;42.662;23.402;2023-02-18T10:15:52;95998.22;;;12.17;39.40
13029;BME280;6581;42.662;23.402;2023-02-18T10:18:24;95994.56;;;12.25;38.53
13029;BME280;6581;42.662;23.402;2023-02-18T10:21:05;95993.28;;;12.57;38.13
13029;BME280;6581;42.662;23.402;2023-02-18T10:23:37;95996.91;;;12.91;38.05
13029;BME280;6581;42.662;23.402;2023-02-18T10:26:11;96001.19;;;13.18;37.52
13029;BME280;6581;42.662;23.402;2023-02-18T10:28:40;95996.56;;;13.38;36.65
13029;BME280;6581;42.662;23.402;2023-02-18T10:31:09;95991.06;;;13.54;35.83
13029;BME280;6581;42.662;23.402;2023-02-18T10:33:45;95989.84;;;13.48;36.24
13029;BME280;6581;42.662;23.402;2023-02-18T10:36:23;95976.03;;;13.39;36.15
13029;BME280;6581;42.662;23.402;2023-02-18T10:39:12;95982.50;;;13.38;36.02
13029;BME280;6581;42.662;23.402;2023-02-18T10:41:50;95976.00;;;13.12;36.43
13029;BME280;6581;42.662;23.402;2023-02-18T10:44:29;95965.41;;;13.16;37.06
13029;BME280;6581;42.662;23.402;2023-02-18T10:47:00;95959.19;;;13.08;36.80
13029;BME280;6581;42.662;23.402;2023-02-18T10:49:54;95950.28;;;13.20;36.83
13029;BME280;6581;42.662;23.402;2023-02-18T10:52:26;95943.44;;;13.45;36.07
13029;BME280;6581;42.662;23.402;2023-02-18T10:54:58;95940.94;;;13.56;35.96
13029;BME280;6581;42.662;23.402;2023-02-18T10:57:26;95947.28;;;13.77;35.20
13029;BME280;6581;42.662;23.402;2023-02-18T10:59:56;95951.75;;;13.70;35.58
13029;BME280;6581;42.662;23.402;2023-02-18T11:02:25;95929.94;;;13.91;35.36
13029;BME280;6581;42.662;23.402;2023-02-18T11:04:56;95933.63;;;14.12;34.44
13029;BME280;6581;42.662;23.402;2023-02-18T11:07:29;95932.66;;;14.28;34.90
13029;BME280;6581;42.662;23.402;2023-02-18T11:09:59;95928.66;;;14.44;34.55
13029;BME280;6581;42.662;23.402;2023-02-18T11:12:29;95914.78;;;14.65;34.06
13029;BME280;6581;42.662;23.402;2023-02-18T11:15:07;95906.16;;;14.82;33.67
13029;BME280;6581;42.662;23.402;2023-02-18T11:17:45;95904.38;;;15.00;33.16
13029;BME280;6581;42.662;23.402;2023-02-18T11:20:30;95887.34;;;15.16;32.56
13029;BME280;6581;42.662;23.402;2023-02-18T11:23:20;95883.22;;;15.29;31.87
13029;BME280;6581;42.662;23.402;2023-02-18T11:25:56;95881.75;;;15.42;31.87
13029;BME280;6581;42.662;23.402;2023-02-18T11:28:30;95883.31;;;15.43;31.44
13029;BME280;6581;42.662;23.402;2023-02-18T11:31:00;95878.69;;;15.40;31.57
13029;BME280;6581;42.662;23.402;2023-02-18T11:33:32;95853.19;;;15.49;31.05
13029;BME280;6581;42.662;23.402;2023-02-18T11:36:03;95863.22;;;15.67;30.94
13029;BME280;6581;42.662;23.402;2023-02-18T11:38:36;95862.47;;;15.73;30.73
13029;BME280;6581;42.662;23.402;2023-02-18T11:41:08;95844.91;;;15.62;31.01
13029;BME280;6581;42.662;23.402;2023-02-18T11:43:40;95855.56;;;15.58;29.89
13029;BME280;6581;42.662;23.402;2023-02-18T11:46:32;95859.22;;;15.36;29.88
13029;BME280;6581;42.662;23.402;2023-02-18T11:49:11;95846.53;;;15.15;30.53
13029;BME280;6581;42.662;23.402;2023-02-18T11:51:47;95846.97;;;15.28;30.82
13029;BME280;6581;42.662;23.402;2023-02-18T11:54:23;95844.78;;;15.44;30.86
13029;BME280;6581;42.662;23.402;2023-02-18T11:56:55;95845.91;;;15.39;30.11
13029;BME280;6581;42.662;23.402;2023-02-18T11:59:23;95833.28;;;15.36;30.49
13029;BME280;6581;42.662;23.402;2023-02-18T12:01:54;95829.78;;;15.22;30.39
13029;BME280;6581;42.662;23.402;2023-02-18T12:04:27;95819.84;;;15.12;31.07
13029;BME280;6581;42.662;23.402;2023-02-18T12:07:04;95817.63;;;15.24;31.42
13029;BME280;6581;42.662;23.402;2023-02-18T12:10:03;95804.28;;;15.31;31.44
13029;BME280;6581;42.662;23.402;2023-02-18T12:12:34;95796.28;;;15.28;31.53
13029;BME280;6581;42.662;23.402;2023-02-18T12:15:04;95792.88;;;15.34;31.36
13029;BME280;6581;42.662;23.402;2023-02-18T12:17:48;95802.44;;;15.42;31.70
13029;BME280;6581;42.662;23.402;2023-02-18T12:20:26;95792.53;;;15.43;31.49
13029;BME280;6581;42.662;23.402;2023-02-18T12:23:07;95795.56;;;15.45;31.46
13029;BME280;6581;42.662;23.402;2023-02-18T12:25:47;95782.63;;;15.47;31.70
13029;BME280;6581;42.662;23.402;2023-02-18T12:28:28;95780.41;;;15.52;32.00
13029;BME280;6581;42.662;23.402;2023-02-18T12:31:26;95767.41;;;15.55;32.65
13029;BME280;6581;42.662;23.402;2023-02-18T12:34:20;95765.91;;;15.64;31.81
13029;BME280;6581;42.662;23.402;2023-02-18T12:37:00;95766.66;;;15.54;31.50
13029;BME280;6581;42.662;23.402;2023-02-18T12:39:37;95763.16;;;15.46;31.73
13029;BME280;6581;42.662;23.402;2023-02-18T12:42:31;95769.72;;;15.56;32.78
13029;BME280;6581;42.662;23.402;2023-02-18T12:45:17;95757.13;;;15.57;31.88
13029;BME280;6581;42.662;23.402;2023-02-18T12:48:14;95753.69;;;15.52;32.33
13029;BME280;6581;42.662;23.402;2023-02-18T12:51:06;95753.69;;;15.63;32.82
13029;BME280;6581;42.662;23.402;2023-02-18T12:53:48;95754.09;;;15.65;32.85
13029;BME280;6581;42.662;23.402;2023-02-18T12:56:47;95752.22;;;15.76;32.75
13029;BME280;6581;42.662;23.402;2023-02-18T12:59:35;95749.94;;;15.82;32.42
13029;BME280;6581;42.662;23.402;2023-02-18T13:02:44;95748.81;;;15.93;32.33
13029;BME280;6581;42.662;23.402;2023-02-18T13:05:25;95754.53;;;16.13;32.41
13029;BME280;6581;42.662;23.402;2023-02-18T13:08:07;95756.44;;;16.27;31.52
13029;BME280;6581;42.662;23.402;2023-02-18T13:10:48;95757.59;;;16.33;31.41
13029;BME280;6581;42.662;23.402;2023-02-18T13:13:20;95758.38;;;16.37;31.04
13029;BME280;6581;42.662;23.402;2023-02-18T13:15:52;95754.94;;;16.44;31.26
13029;BME280;6581;42.662;23.402;2023-02-18T13:18:23;95743.06;;;16.55;30.79
13029;BME280;6581;42.662;23.402;2023-02-18T13:20:54;95742.72;;;16.53;30.89
13029;BME280;6581;42.662;23.402;2023-02-18T13:23:27;95757.22;;;16.66;30.37
13029;BME280;6581;42.662;23.402;2023-02-18T13:25:58;95745.75;;;16.52;29.72
13029;BME280;6581;42.662;23.402;2023-02-18T13:28:31;95739.25;;;16.53;30.12
13029;BME280;6581;42.662;23.402;2023-02-18T13:31:18;95750.75;;;16.60;30.25
13029;BME280;6581;42.662;23.402;2023-02-18T13:33:52;95744.25;;;16.61;29.86
13029;BME280;6581;42.662;23.402;2023-02-18T13:36:32;95749.19;;;16.70;29.78
13029;BME280;6581;42.662;23.402;2023-02-18T13:39:05;95754.16;;;16.75;30.48
13029;BME280;6581;42.662;23.402;2023-02-18T13:41:38;95751.88;;;16.52;31.00
13029;BME280;6581;42.662;23.402;2023-02-18T13:47:38;95753.78;;;16.06;32.58
13029;BME280;6581;42.662;23.402;2023-02-18T13:50:20;95747.31;;;16.03;32.82
13029;BME280;6581;42.662;23.402;2023-02-18T13:52:52;95751.09;;;15.84;32.75
13029;BME280;6581;42.662;23.402;2023-02-18T13:55:30;95755.66;;;15.87;32.97
13029;BME280;6581;42.662;23.402;2023-02-18T13:58:00;95749.94;;;15.71;33.18
13029;BME280;6581;42.662;23.402;2023-02-18T14:00:35;95747.25;;;15.71;32.79
13029;BME280;6581;42.662;23.402;2023-02-18T14:03:19;95746.09;;;15.58;33.34
13029;BME280;6581;42.662;23.402;2023-02-18T14:06:14;95743.00;;;15.56;33.16
13029;BME280;6581;42.662;23.402;2023-02-18T14:08:43;95743.72;;;15.46;33.62
13029;BME280;6581;42.662;23.402;2023-02-18T14:11:34;95739.88;;;15.33;33.27
13029;BME280;6581;42.662;23.402;2023-02-18T14:14:32;95742.53;;;15.36;33.66
13029;BME280;6581;42.662;23.402;2023-02-18T14:20:30;95742.47;;;15.19;34.10
13029;BME280;6581;42.662;23.402;2023-02-18T14:22:58;95747.81;;;15.19;34.21
13029;BME280;6581;42.662;23.402;2023-02-18T14:25:36;95745.84;;;15.08;34.10
13029;BME280;6581;42.662;23.402;2023-02-18T14:28:36;95750.75;;;14.92;33.94
13029;BME280;6581;42.662;23.402;2023-02-18T14:31:52;95744.97;;;14.83;34.50
13029;BME280;6581;42.662;23.402;2023-02-18T14:34:32;95750.25;;;14.76;34.56
13029;BME280;6581;42.662;23.402;2023-02-18T14:37:34;95749.53;;;14.79;34.46
13029;BME280;6581;42.662;23.402;2023-02-18T14:40:18;95750.69;;;14.82;34.64
13029;BME280;6581;42.662;23.402;2023-02-18T14:42:54;95750.25;;;14.76;34.82
13029;BME280;6581;42.662;23.402;2023-02-18T14:45:34;95751.47;;;14.86;34.43
13029;BME280;6581;42.662;23.402;2023-02-18T14:48:32;95743.06;;;14.80;34.81
13029;BME280;6581;42.662;23.402;2023-02-18T14:51:04;95744.94;;;14.76;34.79
13029;BME280;6581;42.662;23.402;2023-02-18T14:53:39;95736.56;;;14.78;34.99
13029;BME280;6581;42.662;23.402;2023-02-18T14:56:09;95746.09;;;14.75;34.94
13029;BME280;6581;42.662;23.402;2023-02-18T14:59:04;95735.44;;;14.82;35.03
13029;BME280;6581;42.662;23.402;2023-02-18T15:01:57;95732.41;;;14.84;35.04
13029;BME280;6581;42.662;23.402;2023-02-18T15:04:25;95728.91;;;14.73;34.83
13029;BME280;6581;42.662;23.402;2023-02-18T15:07:00;95726.94;;;14.62;35.17
13029;BME280;6581;42.662;23.402;2023-02-18T15:09:29;95726.19;;;14.62;35.34
13029;BME280;6581;42.662;23.402;2023-02-18T15:11:59;95724.97;;;14.49;35.55
13029;BME280;6581;42.662;23.402;2023-02-18T15:14:29;95730.72;;;14.54;35.71
13029;BME280;6581;42.662;23.402;2023-02-18T15:17:23;95734.41;;;14.39;36.13
13029;BME280;6581;42.662;23.402;2023-02-18T15:19:55;95730.91;;;14.32;35.82
13029;BME280;6581;42.662;23.402;2023-02-18T15:22:48;95724.38;;;14.22;36.08
13029;BME280;6581;42.662;23.402;2023-02-18T15:25:17;95719.03;;;14.22;36.23
13029;BME280;6581;42.662;23.402;2023-02-18T15:27:45;95716.66;;;14.10;36.22
13029;BME280;6581;42.662;23.402;2023-02-18T15:30:19;95724.69;;;14.17;36.44
13029;BME280;6581;42.662;23.402;2023-02-18T15:32:50;95716.66;;;14.06;36.68
13029;BME280;6581;42.662;23.402;2023-02-18T15:35:20;95720.06;;;14.07;36.72
13029;BME280;6581;42.662;23.402;2023-02-18T15:37:51;95709.72;;;13.98;37.06
13029;BME280;6581;42.662;23.402;2023-02-18T15:40:21;95715.00;;;13.91;37.04
13029;BME280;6581;42.662;23.402;2023-02-18T15:42:52;95704.69;;;13.86;37.14
13029;BME280;6581;42.662;23.402;2023-02-18T15:45:23;95713.75;;;13.78;37.57
13029;BME280;6581;42.662;23.402;2023-02-18T15:47:54;95709.13;;;13.75;37.75
13029;BME280;6581;42.662;23.402;2023-02-18T15:50:24;95707.94;;;13.69;37.94
13029;BME280;6581;42.662;23.402;2023-02-18T15:52:53;95708.59;;;13.59;37.80
13029;BME280;6581;42.662;23.402;2023-02-18T15:55:26;95699.06;;;13.54;38.14
13029;BME280;6581;42.662;23.402;2023-02-18T15:58:25;95690.25;;;13.47;38.04
13029;BME280;6581;42.662;23.402;2023-02-18T16:00:56;95694.34;;;13.37;38.17
13029;BME280;6581;42.662;23.402;2023-02-18T16:03:26;95682.16;;;13.36;38.35
13029;BME280;6581;42.662;23.402;2023-02-18T16:06:09;95686.25;;;13.30;38.74
13029;BME280;6581;42.662;23.402;2023-02-18T16:08:37;95686.56;;;13.21;38.88
13029;BME280;6581;42.662;23.402;2023-02-18T16:11:08;95690.28;;;13.13;39.42
13029;BME280;6581;42.662;23.402;2023-02-18T16:13:44;95679.88;;;13.05;39.55
13029;BME280;6581;42.662;23.402;2023-02-18T16:16:21;95697.72;;;13.04;39.44
13029;BME280;6581;42.662;23.402;2023-02-18T16:19:23;95694.97;;;12.97;39.74
13029;BME280;6581;42.662;23.402;2023-02-18T16:21:50;95704.03;;;12.93;39.73
13029;BME280;6581;42.662;23.402;2023-02-18T16:24:22;95696.13;;;12.96;40.15
13029;BME280;6581;42.662;23.402;2023-02-18T16:26:52;95699.94;;;12.99;40.09
13029;BME280;6581;42.662;23.402;2023-02-18T16:29:22;95701.06;;;12.98;39.79
13029;BME280;6581;42.662;23.402;2023-02-18T16:31:51;95699.50;;;12.93;40.03
13029;BME280;6581;42.662;23.402;2023-02-18T16:34:18;95695.63;;;12.87;40.64
13029;BME280;6581;42.662;23.402;2023-02-18T16:36:45;95708.94;;;12.87;40.23
13029;BME280;6581;42.662;23.402;2023-02-18T16:39:27;95703.94;;;12.82;40.46
13029;BME280;6581;42.662;23.402;2023-02-18T16:41:57;95708.13;;;12.83;40.56
13029;BME280;6581;42.662;23.402;2023-02-18T16:44:24;95703.88;;;12.78;40.75
13029;BME280;6581;42.662;23.402;2023-02-18T16:47:16;95707.28;;;12.79;40.72
13029;BME280;6581;42.662;23.402;2023-02-18T16:49:45;95713.38;;;12.79;40.68
13029;BME280;6581;42.662;23.402;2023-02-18T16:52:15;95714.53;;;12.78;40.76
13029;BME280;6581;42.662;23.402;2023-02-18T16:54:44;95709.94;;;12.79;40.92
13029;BME280;6581;42.662;23.402;2023-02-18T16:57:14;95714.16;;;12.80;40.89
13029;BME280;6581;42.662;23.402;2023-02-18T16:59:41;95713.28;;;12.72;41.23
13029;BME280;6581;42.662;23.402;2023-02-18T17:02:15;95708.06;;;12.79;41.35
13029;BME280;6581;42.662;23.402;2023-02-18T17:04:43;95715.94;;;12.72;41.50
13029;BME280;6581;42.662;23.402;2023-02-18T17:07:11;95711.09;;;12.78;41.38
13029;BME280;6581;42.662;23.402;2023-02-18T17:09:40;95717.81;;;12.68;41.35
13029;BME280;6581;42.662;23.402;2023-02-18T17:12:08;95713.56;;;12.64;41.45
13029;BME280;6581;42.662;23.402;2023-02-18T17:14:38;95717.38;;;12.66;41.43
13029;BME280;6581;42.662;23.402;2023-02-18T17:17:10;95722.31;;;12.64;41.99
13029;BME280;6581;42.662;23.402;2023-02-18T17:19:38;95713.25;;;12.69;41.50
13029;BME280;6581;42.662;23.402;2023-02-18T17:22:05;95713.53;;;12.60;41.71
13029;BME280;6581;42.662;23.402;2023-02-18T17:24:33;95725.66;;;12.61;41.68
13029;BME280;6581;42.662;23.402;2023-02-18T17:26:59;95724.03;;;12.53;41.56
13029;BME280;6581;42.662;23.402;2023-02-18T17:29:26;95724.25;;;12.41;42.27
13029;BME280;6581;42.662;23.402;2023-02-18T17:31:55;95723.44;;;12.37;42.02
13029;BME280;6581;42.662;23.402;2023-02-18T17:34:25;95719.19;;;12.32;42.06
13029;BME280;6581;42.662;23.402;2023-02-18T17:36:53;95724.81;;;12.27;42.49
13029;BME280;6581;42.662;23.402;2023-02-18T17:39:20;95723.94;;;12.20;42.82
13029;BME280;6581;42.662;23.402;2023-02-18T17:41:49;95721.94;;;12.13;43.03
13029;BME280;6581;42.662;23.402;2023-02-18T17:44:18;95723.69;;;12.06;43.39
13029;BME280;6581;42.662;23.402;2023-02-18T17:46:46;95717.03;;;11.92;43.90
13029;BME280;6581;42.662;23.402;2023-02-18T17:49:15;95721.66;;;11.95;43.41
13029;BME280;6581;42.662;23.402;2023-02-18T17:51:43;95723.19;;;11.96;43.99
13029;BME280;6581;42.662;23.402;2023-02-18T17:54:12;95725.38;;;11.91;43.85
13029;BME280;6581;42.662;23.402;2023-02-18T17:56:39;95712.88;;;11.91;44.12
13029;BME280;6581;42.662;23.402;2023-02-18T17:59:07;95712.31;;;11.82;44.83
13029;BME280;6581;42.662;23.402;2023-02-18T18:01:34;95709.81;;;11.70;44.99
13029;BME280;6581;42.662;23.402;2023-02-18T18:04:02;95708.22;;;11.66;44.51
13029;BME280;6581;42.662;23.402;2023-02-18T18:06:30;95697.59;;;11.85;43.53
13029;BME280;6581;42.662;23.402;2023-02-18T18:09:00;95709.50;;;11.94;44.11
13029;BME280;6581;42.662;23.402;2023-02-18T18:11:27;95698.38;;;11.85;44.74
13029;BME280;6581;42.662;23.402;2023-02-18T18:13:55;95699.44;;;11.81;43.95
13029;BME280;6581;42.662;23.402;2023-02-18T18:16:22;95700.19;;;11.81;44.73
13029;BME280;6581;42.662;23.402;2023-02-18T18:18:50;95703.50;;;11.75;45.15
13029;BME280;6581;42.662;23.402;2023-02-18T18:21:20;95695.88;;;11.73;44.59
13029;BME280;6581;42.662;23.402;2023-02-18T18:23:49;95701.94;;;11.74;44.92
13029;BME280;6581;42.662;23.402;2023-02-18T18:26:16;95706.84;;;11.72;45.32
13029;BME280;6581;42.662;23.402;2023-02-18T18:28:44;95710.88;;;11.66;45.54
13029;BME280;6581;42.662;23.402;2023-02-18T18:31:13;95710.00;;;11.58;45.60
13029;BME280;6581;42.662;23.402;2023-02-18T18:33:41;95707.97;;;11.51;45.81
13029;BME280;6581;42.662;23.402;2023-02-18T18:36:13;95715.22;;;11.32;46.31
13029;BME280;6581;42.662;23.402;2023-02-18T18:38:41;95705.88;;;11.19;46.78
13029;BME280;6581;42.662;23.402;2023-02-18T18:41:11;95699.06;;;11.18;46.91
13029;BME280;6581;42.662;23.402;2023-02-18T18:44:05;95693.09;;;11.05;47.04
13029;BME280;6581;42.662;23.402;2023-02-18T18:46:32;95698.69;;;11.00;48.03
13029;BME280;6581;42.662;23.402;2023-02-18T18:48:59;95708.00;;;10.90;48.05
13029;BME280;6581;42.662;23.402;2023-02-18T18:51:28;95700.78;;;10.72;48.91
13029;BME280;6581;42.662;23.402;2023-02-18T18:54:21;95700.63;;;10.64;49.18
13029;BME280;6581;42.662;23.402;2023-02-18T18:56:49;95701.63;;;10.41;49.71
13029;BME280;6581;42.662;23.402;2023-02-18T18:59:18;95696.34;;;10.41;49.86
13029;BME280;6581;42.662;23.402;2023-02-18T19:01:45;95702.41;;;10.41;50.46
13029;BME280;6581;42.662;23.402;2023-02-18T19:04:12;95691.09;;;10.25;52.35
13029;BME280;6581;42.662;23.402;2023-02-18T19:06:39;95695.03;;;10.15;51.53
13029;BME280;6581;42.662;23.402;2023-02-18T19:09:06;95702.63;;;10.17;51.50
13029;BME280;6581;42.662;23.402;2023-02-18T19:11:33;95699.44;;;10.11;52.05
13029;BME280;6581;42.662;23.402;2023-02-18T19:14:01;95682.28;;;10.05;51.89
13029;BME280;6581;42.662;23.402;2023-02-18T19:16:32;95671.09;;;9.96;51.94
13029;BME280;6581;42.662;23.402;2023-02-18T19:19:00;95681.19;;;10.06;52.20
13029;BME280;6581;42.662;23.402;2023-02-18T19:21:27;95684.22;;;10.08;52.51
13029;BME280;6581;42.662;23.402;2023-02-18T19:23:54;95684.59;;;10.07;52.09
13029;BME280;6581;42.662;23.402;2023-02-18T19:26:21;95696.13;;;9.99;52.93
13029;BME280;6581;42.662;23.402;2023-02-18T19:28:49;95705.44;;;9.93;53.04
13029;BME280;6581;42.662;23.402;2023-02-18T19:31:17;95702.38;;;9.75;53.37
13029;BME280;6581;42.662;23.402;2023-02-18T19:33:48;95703.56;;;9.62;53.79
13029;BME280;6581;42.662;23.402;2023-02-18T19:36:39;95701.94;;;9.57;54.30
13029;BME280;6581;42.662;23.402;2023-02-18T19:39:06;95703.91;;;9.60;54.96
13029;BME280;6581;42.662;23.402;2023-02-18T19:41:33;95715.50;;;9.56;55.26
13029;BME280;6581;42.662;23.402;2023-02-18T19:44:00;95709.69;;;9.50;55.24
13029;BME280;6581;42.662;23.402;2023-02-18T19:46:28;95710.63;;;9.58;55.26
13029;BME280;6581;42.662;23.402;2023-02-18T19:48:57;95722.56;;;9.52;54.99
13029;BME280;6581;42.662;23.402;2023-02-18T19:51:24;95709.94;;;9.45;55.48
13029;BME280;6581;42.662;23.402;2023-02-18T19:53:51;95710.78;;;9.33;55.56
13029;BME280;6581;42.662;23.402;2023-02-18T19:56:19;95713.59;;;9.41;56.10
13029;BME280;6581;42.662;23.402;2023-02-18T19:58:46;95703.22;;;9.48;55.25
13029;BME280;6581;42.662;23.402;2023-02-18T20:01:16;95712.66;;;9.49;55.37
13029;BME280;6581;42.662;23.402;2023-02-18T20:03:44;95708.38;;;9.44;55.03
13029;BME280;6581;42.662;23.402;2023-02-18T20:06:15;95695.84;;;9.41;55.26
13029;BME280;6581;42.662;23.402;2023-02-18T20:08:43;95695.75;;;9.38;55.07
13029;BME280;6581;42.662;23.402;2023-02-18T20:11:11;95705.31;;;9.42;54.86
13029;BME280;6581;42.662;23.402;2023-02-18T20:13:38;95712.56;;;9.45;54.92
13029;BME280;6581;42.662;23.402;2023-02-18T20:16:07;95703.44;;;9.43;54.98
13029;BME280;6581;42.662;23.402;2023-02-18T20:18:35;95706.25;;;9.34;55.60
13029;BME280;6581;42.662;23.402;2023-02-18T20:21:04;95694.06;;;9.29;55.20
13029;BME280;6581;42.662;23.402;2023-02-18T20:23:31;95705.03;;;9.31;55.73